createdAt,value
2023-05-19T00:01:55.074Z,6.91
2023-05-19T00:04:21.876Z,6.90
2023-05-19T00:06:50.318Z,6.74
2023-05-19T00:09:16.835Z,6.70
2023-05-19T00:11:43.397Z,6.63
2023-05-19T00:14:10.085Z,6.70
2023-05-19T00:16:36.724Z,6.59
2023-05-19T00:19:03.652Z,6.63
2023-05-19T00:21:30.167Z,6.44
2023-05-19T00:23:56.610Z,6.51
2023-05-19T00:26:23.318Z,6.48
2023-05-19T00:28:49.832Z,6.52
2023-05-19T00:31:16.695Z,6.49
2023-05-19T00:33:43.198Z,6.59
2023-05-19T00:36:09.660Z,6.58
2023-05-19T00:38:36.620Z,6.47
2023-05-19T00:41:03.658Z,6.56
2023-05-19T00:43:30.106Z,6.59
2023-05-19T00:45:56.955Z,6.51
2023-05-19T00:48:24.607Z,6.54
2023-05-19T00:50:51.225Z,6.56
2023-05-19T00:53:17.753Z,6.59
2023-05-19T00:55:44.274Z,6.61
2023-05-19T00:58:10.807Z,6.71
2023-05-19T01:00:37.364Z,6.72
2023-05-19T01:03:04.916Z,6.80
2023-05-19T01:05:31.602Z,6.82
2023-05-19T01:07:58.218Z,6.76
2023-05-19T01:10:24.676Z,6.80
2023-05-19T01:12:51.118Z,6.88
2023-05-19T01:15:17.804Z,6.88
2023-05-19T01:18:03.321Z,6.86
2023-05-19T01:20:36.289Z,6.95
2023-05-19T01:23:05.887Z,6.90
2023-05-19T01:25:50.547Z,6.85
2023-05-19T01:28:35.559Z,6.90
2023-05-19T01:31:02.096Z,6.91
2023-05-19T01:33:28.716Z,6.93
2023-05-19T01:35:55.436Z,6.95
2023-05-19T01:38:21.959Z,6.97
2023-05-19T01:40:48.486Z,6.98
2023-05-19T01:43:16.708Z,6.97
2023-05-19T01:45:43.157Z,6.99
2023-05-19T01:48:11.276Z,7.03
2023-05-19T01:50:37.882Z,6.98
2023-05-19T01:53:04.433Z,7.04
2023-05-19T01:55:31.017Z,6.99
2023-05-19T01:58:16.000Z,6.98
2023-05-19T02:00:52.730Z,7.03
2023-05-19T02:03:42.763Z,7.05
2023-05-19T02:06:09.256Z,7.01
2023-05-19T02:08:38.623Z,7.01
2023-05-19T02:11:09.170Z,7.09
2023-05-19T02:13:36.742Z,7.14
2023-05-19T02:16:03.789Z,7.01
2023-05-19T02:18:30.356Z,7.08
2023-05-19T02:20:56.853Z,7.04
2023-05-19T02:23:23.404Z,7.09
2023-05-19T02:25:49.928Z,7.10
2023-05-19T02:28:16.463Z,7.12
2023-05-19T02:30:42.913Z,7.16
2023-05-19T02:33:09.402Z,7.19
2023-05-19T02:35:35.936Z,7.16
2023-05-19T02:38:02.422Z,7.14
2023-05-19T02:40:28.888Z,7.09
2023-05-19T02:42:55.375Z,7.15
2023-05-19T02:45:21.909Z,7.15
2023-05-19T02:47:48.410Z,7.17
2023-05-19T02:50:14.896Z,7.24
2023-05-19T02:52:41.398Z,7.20
2023-05-19T02:55:08.077Z,7.26
2023-05-19T02:57:34.755Z,7.32
2023-05-19T03:00:02.473Z,7.09
2023-05-19T03:02:29.038Z,7.13
2023-05-19T03:04:55.576Z,7.18
2023-05-19T03:07:22.124Z,7.24
2023-05-19T03:09:48.674Z,7.26
2023-05-19T03:12:15.171Z,7.25
2023-05-19T03:14:41.704Z,7.27
2023-05-19T03:17:08.396Z,7.29
2023-05-19T03:19:35.036Z,7.29
2023-05-19T03:22:01.534Z,7.28
2023-05-19T03:24:28.070Z,7.29
2023-05-19T03:26:54.510Z,7.30
2023-05-19T03:29:21.178Z,7.34
2023-05-19T03:31:47.752Z,7.34
2023-05-19T03:34:14.310Z,7.28
2023-05-19T03:36:40.724Z,7.33
2023-05-19T03:39:07.182Z,7.43
2023-05-19T03:41:33.622Z,7.41
2023-05-19T03:44:00.103Z,7.41
2023-05-19T03:46:26.790Z,7.46
2023-05-19T03:48:53.322Z,7.50
2023-05-19T03:51:19.748Z,7.45
2023-05-19T03:53:46.214Z,7.45
2023-05-19T03:56:12.762Z,7.52
2023-05-19T03:58:39.518Z,7.52
2023-05-19T04:01:06.008Z,7.62
2023-05-19T04:03:32.564Z,7.57
2023-05-19T04:05:59.081Z,7.59
2023-05-19T04:08:25.499Z,7.68
2023-05-19T04:10:51.968Z,7.67
2023-05-19T04:13:18.401Z,7.68
2023-05-19T04:15:44.919Z,7.68
2023-05-19T04:18:11.578Z,7.72
2023-05-19T04:20:38.144Z,7.80
2023-05-19T04:23:04.685Z,7.80
2023-05-19T04:25:31.260Z,7.79
2023-05-19T04:27:57.904Z,7.75
2023-05-19T04:30:24.641Z,7.75
2023-05-19T04:32:51.211Z,7.86
2023-05-19T04:35:18.458Z,7.90
2023-05-19T04:37:47.985Z,7.92
2023-05-19T04:40:14.542Z,8.02
2023-05-19T04:42:41.129Z,8.08
2023-05-19T04:45:08.044Z,8.06
2023-05-19T04:47:34.824Z,8.17
2023-05-19T04:50:01.580Z,8.22
2023-05-19T04:52:28.160Z,8.36
2023-05-19T04:54:54.693Z,8.34
2023-05-19T04:57:21.221Z,8.33
2023-05-19T04:59:47.741Z,8.47
2023-05-19T05:02:14.907Z,8.57
2023-05-19T05:04:41.491Z,8.60
2023-05-19T05:07:08.305Z,8.59
2023-05-19T05:09:34.775Z,8.63
2023-05-19T05:12:01.676Z,8.59
2023-05-19T05:14:28.352Z,8.78
2023-05-19T05:16:55.038Z,8.84
2023-05-19T05:19:21.702Z,9.06
2023-05-19T05:21:48.292Z,9.20
2023-05-19T05:24:14.888Z,9.14
2023-05-19T05:26:41.608Z,9.08
2023-05-19T05:29:08.741Z,9.26
2023-05-19T05:31:35.666Z,9.33
2023-05-19T05:34:02.158Z,9.33
2023-05-19T05:36:28.578Z,9.35
2023-05-19T05:38:55.065Z,9.41
2023-05-19T05:41:23.300Z,9.53
2023-05-19T05:43:49.874Z,9.73
2023-05-19T05:46:16.649Z,9.84
2023-05-19T05:48:43.533Z,9.80
2023-05-19T05:51:10.177Z,9.93
2023-05-19T05:53:37.225Z,10.12
2023-05-19T05:56:03.866Z,10.08
2023-05-19T05:58:30.342Z,10.25
2023-05-19T06:00:56.845Z,10.17
2023-05-19T06:03:23.500Z,10.14
2023-05-19T06:05:50.027Z,10.14
2023-05-19T06:08:16.562Z,10.14
2023-05-19T06:10:45.112Z,10.21
2023-05-19T06:13:13.062Z,10.27
2023-05-19T06:15:39.654Z,10.18
2023-05-19T06:18:06.320Z,10.27
2023-05-19T06:20:33.184Z,10.39
2023-05-19T06:23:00.155Z,10.54
2023-05-19T06:25:26.697Z,10.63
2023-05-19T06:27:53.171Z,10.48
2023-05-19T06:30:19.684Z,10.65
2023-05-19T06:32:46.244Z,10.96
2023-05-19T06:35:12.825Z,11.03
2023-05-19T06:37:39.278Z,11.19
2023-05-19T06:40:06.092Z,11.54
2023-05-19T06:42:32.589Z,11.53
2023-05-19T06:44:58.991Z,11.53
2023-05-19T06:47:25.707Z,11.49
2023-05-19T06:49:52.666Z,11.27
2023-05-19T06:52:19.181Z,11.44
2023-05-19T06:54:45.736Z,11.57
2023-05-19T06:57:12.181Z,11.34
2023-05-19T06:59:38.651Z,11.57
2023-05-19T07:02:05.139Z,11.47
2023-05-19T07:04:31.672Z,11.16
2023-05-19T07:06:58.213Z,11.57
2023-05-19T07:09:24.763Z,11.52
2023-05-19T07:11:51.200Z,11.92
2023-05-19T07:14:17.619Z,11.94
2023-05-19T07:16:44.136Z,11.97
2023-05-19T07:19:10.638Z,11.81
2023-05-19T07:21:37.327Z,11.68
2023-05-19T07:24:03.883Z,11.87
2023-05-19T07:26:30.322Z,12.03
2023-05-19T07:28:56.766Z,12.11
2023-05-19T07:31:23.328Z,12.22
2023-05-19T07:33:50.727Z,12.18
2023-05-19T07:36:18.394Z,11.65
2023-05-19T07:38:45.907Z,11.60
2023-05-19T07:41:12.434Z,11.74
2023-05-19T07:43:38.908Z,11.74
2023-05-19T07:46:05.642Z,11.50
2023-05-19T07:48:32.112Z,11.69
2023-05-19T07:50:58.615Z,11.69
2023-05-19T07:53:25.170Z,11.43
2023-05-19T07:55:51.633Z,11.40
2023-05-19T07:58:18.104Z,11.38
2023-05-19T08:00:44.643Z,11.52
2023-05-19T08:03:11.398Z,11.69
2023-05-19T08:05:37.925Z,11.62
2023-05-19T08:08:04.451Z,11.67
2023-05-19T08:10:31.231Z,11.79
2023-05-19T08:12:58.115Z,11.92
2023-05-19T08:15:24.619Z,11.89
2023-05-19T08:17:51.096Z,11.93
2023-05-19T08:20:17.577Z,11.90
2023-05-19T08:22:44.067Z,11.77
2023-05-19T08:25:10.543Z,11.92
2023-05-19T08:27:36.989Z,12.29
2023-05-19T08:30:03.542Z,12.31
2023-05-19T08:32:30.057Z,12.62
2023-05-19T08:34:56.517Z,13.49
2023-05-19T08:37:23.020Z,13.70
2023-05-19T08:39:49.547Z,14.37
2023-05-19T08:42:15.985Z,16.01
2023-05-19T08:44:42.465Z,14.43
2023-05-19T08:47:08.980Z,14.87
2023-05-19T08:49:35.585Z,14.92
2023-05-19T08:52:05.099Z,16.07
2023-05-19T08:54:33.197Z,15.51
2023-05-19T08:56:59.672Z,14.91
2023-05-19T08:59:26.192Z,14.69
2023-05-19T09:01:52.676Z,14.73
2023-05-19T09:04:19.227Z,14.46
2023-05-19T09:06:46.040Z,14.35
2023-05-19T09:09:12.557Z,14.32
2023-05-19T09:11:39.084Z,14.19
2023-05-19T09:14:05.595Z,14.72
2023-05-19T09:16:32.611Z,14.77
2023-05-19T09:18:59.264Z,14.49
2023-05-19T09:21:29.230Z,14.43
2023-05-19T09:23:55.650Z,14.28
2023-05-19T09:26:22.385Z,14.09
2023-05-19T09:28:48.874Z,13.91
2023-05-19T09:31:15.313Z,13.88
2023-05-19T09:33:44.317Z,13.79
2023-05-19T09:36:12.284Z,14.12
2023-05-19T09:38:38.795Z,14.10
2023-05-19T09:41:05.894Z,14.05
2023-05-19T09:43:32.693Z,13.78
2023-05-19T09:46:05.896Z,13.89
2023-05-19T09:48:32.750Z,13.86
2023-05-19T09:51:00.236Z,13.84
2023-05-19T09:53:26.838Z,14.19
2023-05-19T09:55:56.473Z,14.46
2023-05-19T09:58:22.906Z,14.95
2023-05-19T10:00:49.350Z,15.35
2023-05-19T10:03:15.899Z,15.40
2023-05-19T10:05:42.468Z,15.79
2023-05-19T10:08:08.984Z,14.80
2023-05-19T10:10:35.485Z,14.99
2023-05-19T10:13:02.375Z,15.31
2023-05-19T10:15:28.867Z,15.49
2023-05-19T10:17:55.464Z,15.55
2023-05-19T10:20:22.744Z,15.63
2023-05-19T10:22:49.144Z,16.13
2023-05-19T10:25:15.707Z,16.03
2023-05-19T10:27:42.979Z,15.53
2023-05-19T10:30:15.747Z,15.05
2023-05-19T10:32:43.531Z,14.99
2023-05-19T10:35:10.057Z,14.92
2023-05-19T10:37:42.444Z,14.70
2023-05-19T10:40:10.475Z,14.95
2023-05-19T10:42:41.887Z,14.94
2023-05-19T10:45:14.619Z,14.90
2023-05-19T10:47:41.534Z,15.09
2023-05-19T10:50:08.302Z,15.21
2023-05-19T10:52:38.180Z,15.74
2023-05-19T10:55:04.889Z,15.83
2023-05-19T10:57:31.693Z,16.20
2023-05-19T10:59:58.219Z,16.38
2023-05-19T11:02:40.547Z,16.62
2023-05-19T11:05:16.151Z,16.74
2023-05-19T11:07:42.857Z,17.28
2023-05-19T11:10:09.389Z,17.63
2023-05-19T11:12:42.649Z,17.04
2023-05-19T11:15:13.326Z,17.11
2023-05-19T11:17:40.049Z,17.16
2023-05-19T11:20:07.457Z,16.86
2023-05-19T11:22:34.048Z,16.69
2023-05-19T11:25:00.688Z,17.23
2023-05-19T11:27:27.835Z,16.65
2023-05-19T11:29:54.935Z,17.17
2023-05-19T11:32:21.846Z,17.63
2023-05-19T11:34:48.756Z,17.22
2023-05-19T11:37:15.786Z,17.03
2023-05-19T11:39:42.244Z,16.82
2023-05-19T11:42:08.912Z,17.14
2023-05-19T11:44:35.342Z,17.00
2023-05-19T11:47:01.771Z,16.86
2023-05-19T11:49:28.853Z,17.11
2023-05-19T11:51:55.257Z,17.22
2023-05-19T11:54:21.835Z,16.85
2023-05-19T11:56:48.319Z,16.80
2023-05-19T11:59:14.806Z,16.66
2023-05-19T12:01:41.259Z,16.43
2023-05-19T12:04:08.275Z,17.19
2023-05-19T12:06:34.847Z,17.67
2023-05-19T12:09:01.307Z,18.32
2023-05-19T12:11:28.268Z,18.26
2023-05-19T12:13:58.667Z,18.48
2023-05-19T12:16:33.434Z,17.73
2023-05-19T12:19:00.332Z,18.01
2023-05-19T12:21:34.238Z,17.73
2023-05-19T12:24:01.008Z,17.65
2023-05-19T12:26:27.544Z,17.78
2023-05-19T12:28:53.968Z,17.78
2023-05-19T12:31:20.536Z,17.81
2023-05-19T12:33:48.500Z,17.61
2023-05-19T12:36:15.688Z,18.03
2023-05-19T12:38:42.173Z,17.80
2023-05-19T12:41:10.498Z,17.66
2023-05-19T12:43:36.957Z,17.70
2023-05-19T12:46:12.794Z,17.77
2023-05-19T12:48:43.260Z,17.81
2023-05-19T12:51:09.811Z,18.29
2023-05-19T12:53:37.423Z,17.70
2023-05-19T12:56:10.188Z,17.84
2023-05-19T12:58:36.702Z,17.67
2023-05-19T13:01:03.252Z,17.69
2023-05-19T13:03:30.168Z,18.20
2023-05-19T13:05:56.740Z,18.24
2023-05-19T13:08:23.295Z,18.36
2023-05-19T13:10:49.804Z,17.70
2023-05-19T13:13:16.249Z,17.59
2023-05-19T13:15:46.452Z,17.61
2023-05-19T13:18:13.172Z,18.32
2023-05-19T13:20:40.645Z,18.41
2023-05-19T13:23:07.197Z,18.60
2023-05-19T13:25:33.901Z,18.81
2023-05-19T13:28:00.490Z,18.97
2023-05-19T13:30:27.292Z,19.09
2023-05-19T13:32:53.817Z,18.38
2023-05-19T13:35:20.336Z,17.95
2023-05-19T13:37:46.872Z,17.85
2023-05-19T13:40:13.458Z,18.10
2023-05-19T13:42:40.379Z,17.93
2023-05-19T13:45:07.368Z,18.03
2023-05-19T13:47:33.868Z,18.10
2023-05-19T13:50:00.332Z,17.94
2023-05-19T13:52:28.377Z,17.97
2023-05-19T13:54:56.936Z,18.16
2023-05-19T13:57:23.672Z,17.85
2023-05-19T14:00:02.035Z,18.33
2023-05-19T14:02:29.820Z,18.31
2023-05-19T14:04:56.726Z,18.23
2023-05-19T14:07:23.182Z,17.82
2023-05-19T14:09:49.609Z,17.35
2023-05-19T14:12:16.114Z,17.73
2023-05-19T14:14:42.636Z,17.71
2023-05-19T14:17:09.408Z,17.48
2023-05-19T14:19:36.095Z,17.69
2023-05-19T14:22:02.522Z,17.54
2023-05-19T14:24:28.988Z,17.20
2023-05-19T14:26:55.588Z,17.77
2023-05-19T14:29:22.091Z,18.10
2023-05-19T14:31:48.692Z,17.82
2023-05-19T14:34:15.222Z,17.97
2023-05-19T14:36:41.671Z,17.85
2023-05-19T14:39:08.096Z,17.88
2023-05-19T14:41:34.596Z,18.35
2023-05-19T14:44:01.118Z,18.40
2023-05-19T14:46:27.822Z,18.30
2023-05-19T14:48:54.519Z,18.19
2023-05-19T14:51:21.028Z,18.33
2023-05-19T14:53:47.537Z,17.60
2023-05-19T14:56:14.204Z,17.65
2023-05-19T14:58:40.742Z,17.58
2023-05-19T15:01:07.363Z,17.62
2023-05-19T15:03:33.875Z,17.65
2023-05-19T15:06:00.500Z,17.39
2023-05-19T15:08:26.995Z,17.46
2023-05-19T15:10:53.485Z,17.62
2023-05-19T15:13:19.999Z,17.66
2023-05-19T15:15:46.558Z,17.76
2023-05-19T15:18:13.229Z,17.65
2023-05-19T15:20:39.933Z,17.85
2023-05-19T15:23:06.393Z,17.72
2023-05-19T15:25:32.902Z,17.92
2023-05-19T15:27:59.328Z,17.99
2023-05-19T15:30:25.771Z,17.91
2023-05-19T15:32:52.304Z,17.88
2023-05-19T15:35:18.838Z,18.00
2023-05-19T15:37:45.256Z,18.04
2023-05-19T15:40:11.883Z,18.04
2023-05-19T15:42:38.355Z,17.89
2023-05-19T15:45:05.512Z,17.88
2023-05-19T15:47:32.318Z,18.06
2023-05-19T15:49:58.830Z,17.89
2023-05-19T15:52:25.370Z,17.93
2023-05-19T15:54:51.914Z,18.04
2023-05-19T15:57:18.342Z,17.94
2023-05-19T15:59:44.775Z,17.87
2023-05-19T16:02:11.363Z,17.80
2023-05-19T16:04:37.897Z,17.43
2023-05-19T16:07:04.400Z,17.19
2023-05-19T16:09:30.911Z,17.12
2023-05-19T16:11:57.345Z,17.14
2023-05-19T16:14:23.799Z,17.08
2023-05-19T16:16:50.330Z,16.87
2023-05-19T16:19:16.851Z,16.83
2023-05-19T16:21:43.344Z,16.60
2023-05-19T16:24:09.825Z,16.66
2023-05-19T16:26:36.380Z,16.45
2023-05-19T16:29:02.779Z,16.65
2023-05-19T16:31:29.353Z,16.40
2023-05-19T16:33:55.833Z,16.28
2023-05-19T16:36:22.323Z,16.30
2023-05-19T16:38:48.892Z,16.33
2023-05-19T16:41:15.380Z,16.34
2023-05-19T16:43:41.812Z,16.41
2023-05-19T16:46:08.343Z,16.33
2023-05-19T16:48:34.807Z,16.29
2023-05-19T16:51:01.253Z,16.49
2023-05-19T16:53:27.733Z,16.20
2023-05-19T16:55:54.190Z,16.34
2023-05-19T16:58:20.625Z,16.06
2023-05-19T17:00:50.942Z,16.07
2023-05-19T17:03:17.528Z,16.06
2023-05-19T17:05:44.010Z,16.14
2023-05-19T17:08:10.602Z,16.17
2023-05-19T17:10:37.535Z,16.21
2023-05-19T17:13:03.969Z,16.41
2023-05-19T17:15:30.516Z,16.27
2023-05-19T17:17:57.000Z,16.37
2023-05-19T17:20:23.512Z,16.21
2023-05-19T17:22:49.993Z,16.19
2023-05-19T17:25:16.428Z,16.25
2023-05-19T17:27:42.870Z,16.18
2023-05-19T17:30:09.511Z,16.04
2023-05-19T17:32:36.158Z,16.05
2023-05-19T17:35:02.764Z,16.01
2023-05-19T17:37:29.595Z,15.84
2023-05-19T17:39:56.085Z,15.78
2023-05-19T17:42:22.550Z,15.75
2023-05-19T17:44:49.090Z,15.67
2023-05-19T17:47:15.532Z,15.55
2023-05-19T17:49:41.965Z,15.57
2023-05-19T17:52:08.731Z,15.32
2023-05-19T17:54:35.367Z,15.33
2023-05-19T17:57:02.038Z,15.26
2023-05-19T17:59:28.595Z,15.06
2023-05-19T18:01:55.213Z,15.05
2023-05-19T18:04:21.938Z,14.83
2023-05-19T18:06:48.559Z,15.02
2023-05-19T18:09:15.094Z,14.84
2023-05-19T18:11:43.378Z,14.68
2023-05-19T18:14:09.908Z,14.58
2023-05-19T18:16:36.391Z,14.49
2023-05-19T18:19:03.138Z,14.57
2023-05-19T18:21:29.784Z,14.61
2023-05-19T18:23:56.311Z,14.52
2023-05-19T18:26:22.766Z,14.51
2023-05-19T18:28:49.245Z,14.38
2023-05-19T18:31:15.843Z,14.19
2023-05-19T18:33:42.339Z,14.17
2023-05-19T18:36:08.846Z,14.08
2023-05-19T18:38:35.299Z,14.00
2023-05-19T18:41:01.821Z,14.04
2023-05-19T18:43:28.323Z,14.12
2023-05-19T18:45:54.834Z,14.06
2023-05-19T18:48:21.349Z,14.09
2023-05-19T18:50:47.813Z,13.92
2023-05-19T18:53:14.291Z,13.78
2023-05-19T18:55:40.732Z,13.83
2023-05-19T18:58:07.225Z,13.86
2023-05-19T19:00:35.461Z,13.81
2023-05-19T19:03:02.110Z,13.58
2023-05-19T19:05:28.667Z,13.52
2023-05-19T19:07:55.137Z,13.48
2023-05-19T19:10:21.729Z,13.48
2023-05-19T19:12:48.283Z,13.49
2023-05-19T19:15:14.746Z,13.43
2023-05-19T19:17:41.218Z,13.41
2023-05-19T19:20:08.162Z,13.33
2023-05-19T19:22:34.661Z,13.26
2023-05-19T19:25:01.153Z,13.34
2023-05-19T19:27:27.627Z,13.25
2023-05-19T19:29:54.053Z,13.28
2023-05-19T19:32:20.490Z,13.18
2023-05-19T19:34:47.239Z,13.21
2023-05-19T19:37:13.751Z,13.28
2023-05-19T19:39:40.242Z,13.19
2023-05-19T19:42:06.732Z,13.08
2023-05-19T19:44:33.205Z,13.17
2023-05-19T19:46:59.610Z,13.22
2023-05-19T19:49:26.178Z,13.22
2023-05-19T19:51:52.667Z,13.14
2023-05-19T19:54:19.111Z,13.01
2023-05-19T19:56:45.766Z,13.01
2023-05-19T19:59:12.244Z,12.94
2023-05-19T20:01:38.869Z,12.95
2023-05-19T20:04:05.518Z,12.94
2023-05-19T20:06:32.086Z,12.88
2023-05-19T20:08:58.596Z,12.78
2023-05-19T20:11:25.126Z,12.83
2023-05-19T20:13:51.627Z,12.65
2023-05-19T20:16:18.229Z,12.74
2023-05-19T20:18:44.775Z,12.65
2023-05-19T20:21:11.228Z,12.68
2023-05-19T20:23:37.671Z,12.68
2023-05-19T20:28:36.316Z,12.65
2023-05-19T20:31:02.744Z,12.63
2023-05-19T20:33:29.419Z,12.45
2023-05-19T20:35:55.823Z,12.42
2023-05-19T20:38:22.283Z,12.38
2023-05-19T20:40:48.820Z,12.35
2023-05-19T20:43:15.538Z,12.34
2023-05-19T20:45:44.863Z,12.32
2023-05-19T20:48:11.598Z,12.14
2023-05-19T20:50:38.978Z,12.01
2023-05-19T20:53:05.418Z,11.95
2023-05-19T20:55:32.124Z,11.88
2023-05-19T20:57:58.654Z,11.93
2023-05-19T21:00:25.095Z,11.93
2023-05-19T21:02:51.883Z,11.78
2023-05-19T21:05:18.398Z,11.62
2023-05-19T21:07:45.119Z,11.33
2023-05-19T21:10:11.612Z,11.15
2023-05-19T21:12:38.053Z,11.13
2023-05-19T21:15:04.601Z,11.13
2023-05-19T21:17:31.427Z,11.13
2023-05-19T21:19:58.077Z,11.08
2023-05-19T21:22:25.161Z,11.12
2023-05-19T21:24:51.678Z,10.95
2023-05-19T21:27:18.126Z,10.85
2023-05-19T21:29:44.572Z,10.80
2023-05-19T21:32:11.095Z,10.74
2023-05-19T21:34:37.511Z,10.77
2023-05-19T21:37:03.908Z,10.70
2023-05-19T21:39:30.397Z,10.48
2023-05-19T21:41:56.836Z,10.43
2023-05-19T21:44:23.258Z,10.29
2023-05-19T21:46:49.835Z,10.30
2023-05-19T21:49:16.548Z,10.27
2023-05-19T21:51:43.020Z,9.92
2023-05-19T21:54:09.501Z,10.05
2023-05-19T21:56:36.047Z,9.75
2023-05-19T21:59:02.483Z,9.85
2023-05-19T22:01:29.068Z,9.95
2023-05-19T22:03:55.586Z,9.77
2023-05-19T22:06:22.377Z,9.73
2023-05-19T22:08:48.924Z,9.57
2023-05-19T22:11:15.394Z,9.54
2023-05-19T22:13:41.921Z,9.49
2023-05-19T22:16:08.521Z,9.19
2023-05-19T22:18:35.040Z,9.43
2023-05-19T22:21:01.735Z,9.46
2023-05-19T22:23:28.174Z,9.38
2023-05-19T22:25:54.606Z,9.38
2023-05-19T22:28:21.020Z,9.34
2023-05-19T22:30:47.519Z,9.25
2023-05-19T22:33:13.983Z,9.25
2023-05-19T22:35:40.436Z,9.14
2023-05-19T22:38:08.878Z,8.99
2023-05-19T22:40:36.982Z,9.00
2023-05-19T22:43:03.460Z,8.93
2023-05-19T22:45:31.359Z,9.00
2023-05-19T22:47:58.018Z,8.99
2023-05-19T22:50:24.462Z,8.64
2023-05-19T22:52:50.952Z,8.60
2023-05-19T22:55:17.400Z,8.33
2023-05-19T22:57:43.812Z,8.27
2023-05-19T23:00:10.626Z,8.40
2023-05-19T23:02:37.235Z,8.48
2023-05-19T23:05:03.732Z,8.38
2023-05-19T23:07:30.328Z,8.50
2023-05-19T23:09:56.998Z,8.53
2023-05-19T23:12:23.458Z,8.52
2023-05-19T23:14:50.014Z,8.45
2023-05-19T23:17:16.526Z,8.47
2023-05-19T23:19:42.952Z,8.37
2023-05-19T23:22:11.200Z,8.15
2023-05-19T23:24:38.213Z,8.11
2023-05-19T23:27:04.796Z,8.02
2023-05-19T23:29:31.640Z,8.13
2023-05-19T23:31:58.113Z,8.16
2023-05-19T23:34:24.562Z,8.16
2023-05-19T23:36:51.061Z,8.13
2023-05-19T23:39:17.479Z,8.16
2023-05-19T23:41:43.938Z,8.13
2023-05-19T23:44:10.662Z,8.04
2023-05-19T23:46:37.148Z,7.97
2023-05-19T23:49:03.693Z,7.71
2023-05-19T23:51:30.312Z,7.62
2023-05-19T23:53:56.742Z,7.68
2023-05-19T23:56:23.192Z,7.75
2023-05-19T23:58:50.085Z,7.80
